Time;durP1;ratioP1;P1;durP2;ratioP2;P2;SDS_P1;SDS_P2;PMS_P1;PMS_P2;Temp;Humidity;BMP_temperature;BMP_pressure;BME280_temperature;BME280_humidity;BME280_pressure;Samples;Min_cycle;Max_cycle;Signal;HPM_P1;HPM_P2
2023/06/22 00:02:55;;;;;;;7.40;6.10;;;27.40;62.30;;;;;;222206;1261;24182;-55
2023/06/22 00:08:03;;;;;;;6.50;5.90;;;27.30;62.70;;;;;;222173;1256;25184;-56
2023/06/22 00:13:09;;;;;;;7.70;6.50;;;27.40;63.10;;;;;;222175;1264;22551;-57
2023/06/22 00:18:13;;;;;;;7.00;5.90;;;27.40;63.40;;;;;;222277;1267;24154;-56
2023/06/22 00:23:17;;;;;;;7.20;6.50;;;27.40;63.40;;;;;;222176;1266;22509;-56
2023/06/22 00:28:22;;;;;;;7.20;6.60;;;27.40;63.40;;;;;;222366;1261;23876;-56
2023/06/22 00:33:28;;;;;;;7.70;7.10;;;27.40;63.40;;;;;;222486;1267;22685;-57
2023/06/22 00:38:32;;;;;;;7.50;6.90;;;27.40;63.80;;;;;;222497;1263;22515;-57
2023/06/22 00:43:37;;;;;;;7.30;6.70;;;27.50;63.50;;;;;;229689;1266;24216;-54
2023/06/22 00:48:43;;;;;;;7.40;6.70;;;27.60;63.00;;;;;;230564;1266;22877;-53
2023/06/22 00:53:47;;;;;;;6.80;6.20;;;27.80;62.40;;;;;;230337;1265;22845;-53
2023/06/22 00:58:53;;;;;;;7.10;6.50;;;27.90;62.10;;;;;;226581;1261;23164;-56
2023/06/22 01:03:58;;;;;;;6.20;5.60;;;27.90;62.10;;;;;;222590;1262;25433;-56
2023/06/22 01:09:15;;;;;;;6.90;6.20;;;27.70;62.50;;;;;;222442;1265;24033;-55
2023/06/22 01:14:31;;;;;;;6.70;5.90;;;27.60;62.80;;;;;;221945;1265;22535;-55
2023/06/22 01:19:41;;;;;;;7.00;6.40;;;27.50;63.10;;;;;;221993;1267;22518;-55
2023/06/22 01:24:57;;;;;;;6.40;5.80;;;27.40;63.70;;;;;;222444;1266;26160;-56
2023/06/22 01:30:03;;;;;;;6.40;5.80;;;27.40;63.40;;;;;;222291;1259;23898;-56
2023/06/22 01:35:12;;;;;;;6.70;6.00;;;27.40;63.40;;;;;;222181;1263;24240;-54
2023/06/22 01:40:17;;;;;;;6.00;5.60;;;27.30;63.50;;;;;;221829;1262;22585;-54
2023/06/22 01:45:21;;;;;;;5.90;5.30;;;27.40;63.60;;;;;;221956;1260;24079;-57
2023/06/22 01:50:26;;;;;;;6.30;5.80;;;27.40;63.50;;;;;;222292;1267;23985;-55
2023/06/22 01:55:32;;;;;;;6.10;5.70;;;27.40;63.40;;;;;;222239;1264;23937;-55
2023/06/22 02:00:40;;;;;;;6.00;5.50;;;27.40;63.50;;;;;;222207;1261;22515;-54
2023/06/22 02:05:56;;;;;;;6.00;5.20;;;27.30;63.30;;;;;;222067;1263;22526;-57
2023/06/22 02:11:02;;;;;;;7.70;7.00;;;27.40;63.40;;;;;;222619;1266;252159;-54
2023/06/22 02:16:08;;;;;;;5.70;5.30;;;27.40;63.50;;;;;;222290;1265;22781;-57
2023/06/22 02:21:12;;;;;;;6.90;5.70;;;27.40;63.40;;;;;;222739;1265;24221;-56
2023/06/22 02:26:18;;;;;;;7.10;6.40;;;27.40;63.40;;;;;;222093;1265;23755;-55
2023/06/22 02:31:22;;;;;;;6.20;5.70;;;27.50;63.60;;;;;;222278;1267;24216;-56
2023/06/22 02:36:30;;;;;;;6.00;5.60;;;27.40;63.70;;;;;;222342;1260;22595;-57
2023/06/22 02:41:36;;;;;;;5.70;5.30;;;27.40;63.80;;;;;;222211;1261;23165;-57
2023/06/22 02:46:40;;;;;;;6.20;5.80;;;27.40;63.50;;;;;;230302;1267;22149;-53
2023/06/22 02:51:46;;;;;;;7.70;7.00;;;27.60;63.20;;;;;;230213;1264;22949;-55
2023/06/22 02:56:52;;;;;;;5.90;5.50;;;27.80;63.00;;;;;;222756;1267;22995;-55
2023/06/22 03:01:56;;;;;;;6.80;6.20;;;27.60;63.20;;;;;;224953;1257;22511;-54
2023/06/22 03:07:04;;;;;;;6.90;6.00;;;27.50;63.90;;;;;;222081;1262;22627;-53
2023/06/22 03:12:10;;;;;;;6.10;5.50;;;27.40;63.50;;;;;;222487;1266;22622;-55
2023/06/22 03:17:27;;;;;;;6.00;5.50;;;27.30;64.20;;;;;;222242;1254;22510;-56
2023/06/22 03:22:32;;;;;;;6.20;5.70;;;27.30;63.80;;;;;;221934;1263;22717;-54
2023/06/22 03:27:37;;;;;;;6.60;6.00;;;27.30;64.20;;;;;;222040;1261;22767;-55
2023/06/22 03:32:43;;;;;;;6.80;6.10;;;27.30;65.00;;;;;;222051;1264;22519;-53
2023/06/22 03:37:47;;;;;;;8.90;6.60;;;27.30;64.40;;;;;;222366;1266;22527;-54
2023/06/22 03:42:51;;;;;;;6.70;6.10;;;27.30;65.20;;;;;;222450;1260;22518;-57
2023/06/22 03:47:56;;;;;;;6.50;6.10;;;27.40;64.90;;;;;;222537;1255;22540;-55
2023/06/22 03:53:00;;;;;;;6.50;6.00;;;27.30;64.60;;;;;;222131;1262;22655;-56
2023/06/22 03:58:05;;;;;;;7.20;6.60;;;27.30;64.40;;;;;;222553;1267;24370;-56
2023/06/22 04:03:09;;;;;;;7.60;6.60;;;27.30;64.90;;;;;;223955;1263;23983;-55
2023/06/22 04:08:14;;;;;;;7.00;6.50;;;27.30;64.70;;;;;;222114;1262;22551;-56
2023/06/22 04:13:19;;;;;;;6.60;6.10;;;27.40;64.70;;;;;;222118;1261;22527;-56
2023/06/22 04:18:23;;;;;;;6.80;6.20;;;27.40;64.60;;;;;;222228;1260;25379;-54
2023/06/22 04:23:28;;;;;;;6.80;6.10;;;27.40;65.00;;;;;;222442;1264;22633;-55
2023/06/22 04:28:35;;;;;;;5.80;5.40;;;27.40;64.30;;;;;;222479;1261;22511;-55
2023/06/22 04:33:40;;;;;;;6.60;6.20;;;27.40;64.40;;;;;;222421;1266;24185;-54
2023/06/22 04:38:44;;;;;;;6.40;6.00;;;27.40;64.70;;;;;;222645;1267;22532;-54
2023/06/22 04:43:53;;;;;;;6.70;6.10;;;27.40;65.00;;;;;;222354;1254;22516;-56
2023/06/22 04:48:57;;;;;;;5.70;5.20;;;27.40;64.60;;;;;;222535;1266;25176;-55
2023/06/22 04:54:02;;;;;;;6.10;5.70;;;27.40;64.60;;;;;;222043;1254;22511;-55
2023/06/22 04:59:07;;;;;;;6.70;6.00;;;27.40;64.30;;;;;;222095;1245;25335;-56
2023/06/22 05:04:12;;;;;;;7.20;6.70;;;27.40;64.80;;;;;;222806;1261;24383;-56
2023/06/22 05:09:17;;;;;;;7.90;7.10;;;27.40;64.80;;;;;;222149;1260;24742;-55
2023/06/22 05:14:21;;;;;;;6.60;6.00;;;27.40;65.40;;;;;;222416;1261;24470;-55
2023/06/22 05:19:31;;;;;;;6.70;6.20;;;27.50;64.50;;;;;;222051;1267;23076;-55
2023/06/22 05:24:35;;;;;;;6.20;5.60;;;27.50;64.10;;;;;;222189;1264;24216;-55
2023/06/22 05:29:39;;;;;;;6.00;5.50;;;27.60;63.80;;;;;;222238;1258;24358;-53
2023/06/22 05:34:44;;;;;;;5.70;5.30;;;27.60;63.70;;;;;;222944;1257;22735;-57
2023/06/22 05:39:48;;;;;;;6.30;5.90;;;27.60;63.50;;;;;;222131;1261;22604;-55
2023/06/22 05:44:53;;;;;;;6.70;5.90;;;27.60;64.30;;;;;;222169;1268;22772;-54
2023/06/22 05:49:58;;;;;;;6.00;5.60;;;27.60;64.00;;;;;;222254;1252;22516;-54
2023/06/22 05:55:03;;;;;;;6.10;5.30;;;27.40;65.80;;;;;;222523;1261;24333;-57
2023/06/22 06:00:10;;;;;;;6.20;5.80;;;27.60;64.80;;;;;;222059;1254;22523;-54
2023/06/22 06:05:15;;;;;;;8.50;5.70;;;27.50;65.60;;;;;;222288;1260;25600;-54
2023/06/22 06:10:20;;;;;;;7.20;6.00;;;27.50;65.20;;;;;;222242;1254;24335;-57
2023/06/22 06:15:24;;;;;;;6.50;5.20;;;27.70;64.90;;;;;;222193;1261;22527;-55
2023/06/22 06:20:29;;;;;;;5.90;5.30;;;27.70;64.90;;;;;;222832;1260;22529;-55
2023/06/22 06:25:34;;;;;;;7.30;5.50;;;27.80;65.00;;;;;;222051;1266;25368;-53
2023/06/22 06:30:38;;;;;;;6.50;5.80;;;27.80;64.80;;;;;;221205;1267;24224;-52
2023/06/22 06:35:42;;;;;;;5.70;5.30;;;28.00;64.70;;;;;;220820;1266;22821;-54
2023/06/22 06:40:48;;;;;;;8.70;5.50;;;27.90;64.60;;;;;;220927;1267;22999;-52
2023/06/22 06:45:53;;;;;;;11.80;6.10;;;27.90;65.00;;;;;;221114;1268;24329;-54
2023/06/22 06:50:57;;;;;;;6.80;5.90;;;28.00;64.70;;;;;;222345;1253;25580;-52
2023/06/22 06:56:01;;;;;;;9.60;6.10;;;27.90;64.70;;;;;;222011;1245;22550;-53
2023/06/22 07:01:05;;;;;;;10.00;6.50;;;28.00;64.60;;;;;;222256;1260;22519;-49
2023/06/22 07:06:09;;;;;;;15.20;6.00;;;28.10;64.50;;;;;;222209;1257;23966;-51
2023/06/22 07:11:13;;;;;;;11.20;5.50;;;28.00;64.70;;;;;;222125;1264;22522;-52
2023/06/22 07:16:18;;;;;;;7.10;6.40;;;28.00;64.80;;;;;;230081;1261;22256;-45
2023/06/22 07:21:22;;;;;;;6.50;5.70;;;28.30;64.00;;;;;;226539;1261;25259;-54
2023/06/22 07:26:26;;;;;;;7.00;6.40;;;28.60;63.60;;;;;;223174;1260;25277;-49
2023/06/22 07:31:32;;;;;;;6.90;6.20;;;28.50;63.70;;;;;;222397;1256;22541;-48
2023/06/22 07:36:37;;;;;;;6.10;5.60;;;28.30;64.20;;;;;;222260;1255;25211;-49
2023/06/22 07:41:44;;;;;;;6.80;6.10;;;28.20;64.40;;;;;;222140;1261;22524;-53
2023/06/22 07:46:48;;;;;;;8.50;6.00;;;28.30;64.30;;;;;;222083;1263;22819;-45
2023/06/22 07:51:52;;;;;;;6.50;5.60;;;28.30;64.40;;;;;;222299;1262;22571;-46
2023/06/22 07:56:57;;;;;;;5.60;5.30;;;28.20;64.60;;;;;;222521;1258;22530;-45
2023/06/22 08:02:03;;;;;;;6.00;5.40;;;28.30;64.00;;;;;;222322;1254;22529;-52
2023/06/22 08:07:07;;;;;;;6.00;5.60;;;28.40;63.80;;;;;;222640;1254;24186;-47
2023/06/22 08:12:12;;;;;;;6.60;6.20;;;28.40;63.80;;;;;;222374;1253;24240;-51
2023/06/22 08:17:17;;;;;;;5.80;5.40;;;28.40;63.80;;;;;;222274;1264;24248;-46
2023/06/22 08:22:21;;;;;;;6.20;5.70;;;28.40;63.60;;;;;;222310;1264;25269;-45
2023/06/22 08:27:28;;;;;;;6.10;5.60;;;28.50;63.60;;;;;;222096;1260;24138;-45
2023/06/22 08:32:32;;;;;;;6.50;5.90;;;28.60;63.90;;;;;;222225;1254;22665;-43
2023/06/22 08:37:38;;;;;;;6.60;6.10;;;28.60;63.20;;;;;;222636;1254;22588;-42
2023/06/22 08:42:43;;;;;;;6.40;5.80;;;28.70;63.10;;;;;;222365;1254;24183;-43
2023/06/22 08:47:47;;;;;;;5.80;5.40;;;28.70;63.10;;;;;;222387;1257;23901;-43
2023/06/22 08:52:51;;;;;;;6.50;6.00;;;28.70;63.80;;;;;;222112;1261;22514;-46
2023/06/22 08:57:55;;;;;;;6.60;6.00;;;28.70;62.50;;;;;;222551;1252;22525;-45
2023/06/22 09:02:59;;;;;;;6.00;5.60;;;28.70;62.90;;;;;;222394;1253;22533;-45
2023/06/22 09:08:04;;;;;;;6.30;5.80;;;28.70;62.80;;;;;;222238;1253;24196;-44
2023/06/22 09:13:09;;;;;;;5.80;5.40;;;28.80;62.80;;;;;;222206;1261;22525;-46
2023/06/22 09:18:14;;;;;;;5.70;5.20;;;28.70;63.40;;;;;;222316;1260;25513;-48
2023/06/22 09:23:18;;;;;;;6.10;5.40;;;28.80;62.80;;;;;;222146;1253;25225;-49
2023/06/22 09:28:22;;;;;;;6.00;5.40;;;28.90;62.80;;;;;;222493;1252;25469;-48
2023/06/22 09:33:26;;;;;;;5.90;5.50;;;28.90;62.70;;;;;;222433;1261;22543;-53
2023/06/22 09:38:30;;;;;;;6.90;6.10;;;28.80;63.00;;;;;;222336;1261;25468;-45
2023/06/22 09:43:37;;;;;;;6.10;5.60;;;28.90;63.00;;;;;;222314;1262;22517;-44
2023/06/22 09:48:41;;;;;;;6.10;5.50;;;28.90;62.60;;;;;;222105;1253;23444;-44
2023/06/22 09:53:46;;;;;;;6.40;5.90;;;29.10;63.00;;;;;;222358;1257;22637;-48
2023/06/22 09:58:52;;;;;;;6.00;5.30;;;29.20;62.70;;;;;;223058;1262;22577;-44
2023/06/22 10:03:58;;;;;;;5.80;5.40;;;29.20;62.70;;;;;;222282;1259;22525;-45
2023/06/22 10:09:02;;;;;;;5.80;5.30;;;29.30;62.90;;;;;;222241;1259;22819;-45
2023/06/22 10:14:06;;;;;;;6.20;5.60;;;29.30;62.80;;;;;;222220;1253;22522;-44
2023/06/22 10:19:11;;;;;;;6.60;6.10;;;29.30;62.60;;;;;;222184;1262;22521;-46
2023/06/22 10:24:15;;;;;;;6.20;5.80;;;29.30;62.60;;;;;;222307;1256;24053;-46
2023/06/22 10:29:20;;;;;;;5.80;5.40;;;29.30;62.50;;;;;;224374;1257;24180;-44
2023/06/22 10:34:24;;;;;;;6.90;6.40;;;29.40;62.30;;;;;;222529;1261;26249;-43
2023/06/22 10:39:28;;;;;;;6.20;5.80;;;29.40;62.10;;;;;;222415;1262;22521;-46
2023/06/22 10:44:32;;;;;;;6.90;6.30;;;29.40;61.60;;;;;;222184;1261;22557;-45
2023/06/22 10:49:38;;;;;;;6.90;6.30;;;29.40;61.70;;;;;;222226;1255;22790;-47
2023/06/22 10:54:42;;;;;;;6.70;6.20;;;29.40;61.80;;;;;;222621;1261;22599;-46
2023/06/22 10:59:46;;;;;;;5.90;5.40;;;29.50;61.60;;;;;;222557;1256;23568;-44
2023/06/22 11:04:50;;;;;;;6.70;6.20;;;29.40;62.10;;;;;;222264;1253;26016;-43
2023/06/22 11:09:55;;;;;;;6.90;6.20;;;29.50;61.90;;;;;;222159;1262;22534;-45
2023/06/22 11:14:59;;;;;;;8.00;7.00;;;29.50;62.00;;;;;;222004;1255;22719;-46
2023/06/22 11:20:10;;;;;;;6.10;5.60;;;29.60;61.90;;;;;;222094;1253;26129;-47
2023/06/22 11:25:15;;;;;;;6.20;5.70;;;29.60;62.00;;;;;;222207;1259;25521;-47
2023/06/22 11:30:19;;;;;;;6.00;5.60;;;29.60;62.00;;;;;;222080;1262;23874;-45
2023/06/22 11:35:23;;;;;;;7.00;6.20;;;29.40;62.40;;;;;;222093;1247;22752;-45
2023/06/22 11:40:28;;;;;;;6.00;5.40;;;29.60;62.10;;;;;;222437;1256;22703;-46
2023/06/22 11:45:32;;;;;;;7.20;5.90;;;29.80;61.80;;;;;;222168;1260;22515;-47
2023/06/22 11:50:36;;;;;;;6.20;5.80;;;29.80;61.70;;;;;;222327;1256;24216;-46
2023/06/22 11:55:40;;;;;;;6.60;6.10;;;29.80;61.70;;;;;;221908;1262;23917;-48
2023/06/22 12:00:45;;;;;;;6.00;5.60;;;29.80;61.60;;;;;;222012;1256;24157;-46
2023/06/22 12:05:55;;;;;;;6.00;5.50;;;29.90;61.50;;;;;;222041;1256;24355;-45
2023/06/22 12:10:59;;;;;;;6.60;6.00;;;29.80;61.50;;;;;;222025;1264;25435;-44
2023/06/22 12:16:03;;;;;;;6.30;5.90;;;29.80;61.40;;;;;;222124;1262;22525;-48
2023/06/22 12:21:08;;;;;;;6.10;5.60;;;29.80;61.30;;;;;;222432;1253;22562;-47
2023/06/22 12:26:12;;;;;;;6.10;5.70;;;29.80;61.60;;;;;;222146;1256;22528;-46
2023/06/22 12:31:18;;;;;;;6.30;5.90;;;29.70;61.70;;;;;;222344;1253;22560;-49
2023/06/22 12:36:28;;;;;;;6.30;5.90;;;29.80;62.10;;;;;;222126;1257;22572;-51
2023/06/22 12:41:39;;;;;;;6.40;5.90;;;29.80;62.00;;;;;;222321;1260;24362;-48
2023/06/22 12:46:50;;;;;;;6.00;5.50;;;29.70;61.80;;;;;;222362;1253;25383;-51
2023/06/22 12:52:03;;;;;;;6.00;5.60;;;29.80;62.40;;;;;;222433;1253;26576;-45
2023/06/22 13:03:48;;;;;;;6.50;6.00;;;29.90;62.00;;;;;;222494;1261;25212;-46
2023/06/22 13:08:59;;;;;;;5.90;5.40;;;30.00;61.60;;;;;;222287;1255;24216;-49
2023/06/22 13:14:09;;;;;;;6.10;5.60;;;29.90;61.70;;;;;;222358;1253;25525;-45
2023/06/22 13:19:14;;;;;;;6.10;5.70;;;29.80;62.10;;;;;;222331;1262;22616;-46
2023/06/22 13:24:18;;;;;;;6.50;5.70;;;29.90;61.60;;;;;;222392;1259;22554;-46
2023/06/22 13:29:22;;;;;;;6.30;5.80;;;30.00;61.50;;;;;;222087;1253;22512;-46
2023/06/22 13:34:26;;;;;;;6.10;5.60;;;29.90;61.70;;;;;;222221;1265;24060;-46
2023/06/22 13:39:30;;;;;;;6.10;5.50;;;29.90;61.90;;;;;;222477;1262;26603;-47
2023/06/22 13:44:35;;;;;;;6.80;6.30;;;29.80;62.00;;;;;;222169;1253;22646;-48
2023/06/22 13:49:38;;;;;;;6.00;5.70;;;29.90;61.70;;;;;;222615;1263;26337;-45
2023/06/22 13:54:43;;;;;;;11.90;5.40;;;29.90;61.90;;;;;;222680;1261;22632;-43
2023/06/22 13:59:47;;;;;;;6.00;5.60;;;29.90;61.70;;;;;;222981;1267;23527;-46
2023/06/22 14:04:52;;;;;;;6.00;5.60;;;29.90;61.60;;;;;;222604;1263;22530;-45
2023/06/22 14:09:57;;;;;;;6.30;5.60;;;30.10;61.70;;;;;;222067;1260;22773;-46
2023/06/22 14:15:01;;;;;;;6.40;5.90;;;30.00;61.90;;;;;;221817;1258;335560;-41
2023/06/22 14:20:08;;;;;;;5.90;5.40;;;29.90;62.50;;;;;;222601;1262;23112;-44
2023/06/22 14:25:12;;;;;;;6.30;5.90;;;30.30;61.40;;;;;;222238;1262;22972;-43
2023/06/22 14:30:16;;;;;;;6.00;5.50;;;30.20;61.30;;;;;;222393;1263;22543;-46
2023/06/22 14:35:21;;;;;;;5.60;5.20;;;29.60;59.90;;;;;;222376;1266;23918;-45
2023/06/22 14:40:25;;;;;;;6.10;5.70;;;28.80;57.50;;;;;;222387;1263;23903;-43
2023/06/22 14:45:29;;;;;;;5.60;5.20;;;28.30;55.50;;;;;;222894;1261;22727;-43
2023/06/22 14:50:34;;;;;;;6.10;5.20;;;28.10;53.50;;;;;;222316;1252;22602;-43
2023/06/22 14:55:38;;;;;;;5.70;4.80;;;27.70;51.80;;;;;;222212;1263;22517;-43
2023/06/22 15:00:42;;;;;;;5.50;5.00;;;27.60;51.70;;;;;;222429;1258;25324;-43
2023/06/22 15:05:46;;;;;;;6.30;5.00;;;27.40;50.20;;;;;;222294;1260;24193;-41
2023/06/22 15:10:52;;;;;;;5.50;5.10;;;27.30;52.20;;;;;;221910;1260;22629;-42
2023/06/22 15:15:56;;;;;;;5.70;5.20;;;27.20;51.30;;;;;;222748;1262;22510;-43
2023/06/22 15:21:01;;;;;;;5.30;4.90;;;27.00;50.00;;;;;;222073;1265;22840;-42
2023/06/22 15:26:05;;;;;;;5.30;4.90;;;26.90;49.10;;;;;;222191;1263;24164;-42
2023/06/22 15:31:09;;;;;;;5.10;4.80;;;26.70;48.20;;;;;;222404;1265;23618;-41
2023/06/22 15:36:13;;;;;;;5.20;4.90;;;26.50;47.20;;;;;;222418;1267;22617;-41
2023/06/22 15:41:18;;;;;;;5.50;4.90;;;26.40;46.60;;;;;;222185;1253;22571;-40
2023/06/22 15:46:22;;;;;;;8.30;4.90;;;26.30;46.60;;;;;;222421;1261;24287;-40
2023/06/22 15:51:28;;;;;;;6.40;5.30;;;26.20;45.60;;;;;;222234;1265;22613;-43
2023/06/22 15:56:32;;;;;;;4.70;4.30;;;26.00;45.40;;;;;;222550;1263;22697;-40
2023/06/22 16:01:36;;;;;;;10.40;4.90;;;25.90;45.30;;;;;;222155;1262;25278;-49
2023/06/22 16:06:41;;;;;;;7.10;4.60;;;26.00;46.60;;;;;;222277;1265;23858;-42
2023/06/22 16:11:46;;;;;;;5.50;5.10;;;26.90;46.10;;;;;;222590;1263;25008;-44
2023/06/22 16:16:51;;;;;;;5.20;4.60;;;27.30;46.50;;;;;;223537;1265;25362;-47
2023/06/22 16:21:56;;;;;;;4.80;4.20;;;27.50;47.20;;;;;;222744;1263;25413;-45
2023/06/22 16:27:00;;;;;;;6.10;4.90;;;27.70;47.80;;;;;;222421;1265;24347;-46
2023/06/22 16:32:08;;;;;;;6.50;4.60;;;27.80;48.60;;;;;;222936;1265;25306;-46
2023/06/22 16:37:13;;;;;;;5.20;4.50;;;27.90;49.10;;;;;;222827;1267;22524;-47
2023/06/22 16:42:17;;;;;;;5.20;4.70;;;28.00;50.50;;;;;;222446;1265;22635;-51
2023/06/22 16:47:21;;;;;;;7.30;5.20;;;28.10;50.40;;;;;;222022;1265;22513;-54
2023/06/22 16:52:25;;;;;;;7.30;4.90;;;28.30;50.80;;;;;;222116;1258;22520;-46
2023/06/22 16:57:29;;;;;;;6.90;5.40;;;28.40;51.60;;;;;;222365;1264;24197;-48
2023/06/22 17:02:37;;;;;;;10.30;5.40;;;28.40;51.80;;;;;;222522;1249;24206;-47
2023/06/22 17:07:53;;;;;;;7.20;5.70;;;28.60;52.20;;;;;;222582;1256;22544;-46
2023/06/22 17:12:57;;;;;;;14.70;8.40;;;28.60;52.50;;;;;;223256;1268;22633;-46
2023/06/22 17:18:06;;;;;;;13.80;7.80;;;28.60;54.90;;;;;;228583;1263;22537;-46
2023/06/22 17:23:10;;;;;;;9.40;7.10;;;28.90;55.10;;;;;;222420;1265;22626;-49
2023/06/22 17:28:14;;;;;;;12.90;7.50;;;28.90;55.00;;;;;;222639;1265;22511;-49
2023/06/22 17:33:20;;;;;;;10.50;7.30;;;28.80;54.80;;;;;;222503;1264;23040;-45
2023/06/22 17:38:26;;;;;;;10.60;7.50;;;28.80;55.50;;;;;;222739;1253;25221;-48
2023/06/22 17:43:30;;;;;;;11.70;6.90;;;28.80;55.80;;;;;;222692;1268;22600;-46
2023/06/22 17:48:35;;;;;;;11.10;7.60;;;29.00;55.80;;;;;;222448;1253;24193;-47
2023/06/22 17:53:39;;;;;;;10.40;7.40;;;29.00;55.60;;;;;;223157;1267;22541;-48
2023/06/22 17:58:54;;;;;;;9.40;7.90;;;29.00;55.80;;;;;;222450;1258;22614;-44
2023/06/22 18:03:58;;;;;;;12.00;7.50;;;28.80;56.20;;;;;;223033;1255;23118;-46
2023/06/22 18:09:04;;;;;;;10.80;6.60;;;28.90;56.50;;;;;;222405;1261;24241;-54
2023/06/22 18:14:09;;;;;;;12.90;6.30;;;28.70;56.30;;;;;;224979;1254;23768;-51
2023/06/22 18:19:14;;;;;;;7.50;6.10;;;27.70;54.90;;;;;;222517;1257;24047;-49
2023/06/22 18:24:19;;;;;;;11.30;6.20;;;27.20;53.60;;;;;;222070;1264;22639;-50
2023/06/22 18:29:25;;;;;;;7.30;5.70;;;26.80;52.40;;;;;;222506;1255;24126;-52
2023/06/22 18:34:29;;;;;;;11.10;5.20;;;26.60;51.60;;;;;;221861;1246;23207;-50
2023/06/22 18:39:37;;;;;;;7.40;5.90;;;26.40;50.80;;;;;;222609;1265;24177;-52
2023/06/22 18:44:42;;;;;;;9.30;5.40;;;26.20;49.90;;;;;;222194;1263;22526;-48
2023/06/22 18:49:48;;;;;;;6.00;5.40;;;25.90;49.40;;;;;;221900;1267;22640;-53
2023/06/22 18:54:54;;;;;;;9.40;7.00;;;25.90;49.50;;;;;;221879;1264;24196;-50
2023/06/22 19:00:10;;;;;;;11.50;6.50;;;25.70;49.50;;;;;;222000;1261;23884;-48
2023/06/22 19:05:14;;;;;;;8.50;5.60;;;26.00;53.50;;;;;;222238;1247;27692;-51
2023/06/22 19:10:31;;;;;;;10.50;5.10;;;25.70;49.90;;;;;;222588;1264;22553;-52
2023/06/22 19:15:36;;;;;;;6.70;5.50;;;25.90;51.50;;;;;;222140;1257;25667;-53
2023/06/22 19:20:40;;;;;;;6.00;5.30;;;25.80;53.80;;;;;;222396;1260;22539;-54
2023/06/22 19:25:45;;;;;;;10.50;5.70;;;25.60;50.90;;;;;;221926;1256;24234;-52
2023/06/22 19:30:52;;;;;;;6.40;5.50;;;25.80;53.90;;;;;;222584;1263;24363;-52
2023/06/22 19:36:02;;;;;;;18.50;5.50;;;25.80;55.00;;;;;;222429;1263;25246;-50
2023/06/22 19:41:09;;;;;;;9.00;5.30;;;25.70;55.20;;;;;;222694;1265;22617;-53
2023/06/22 19:46:14;;;;;;;12.20;4.60;;;25.60;52.70;;;;;;222219;1262;22536;-53
2023/06/22 19:51:18;;;;;;;9.80;5.10;;;26.00;53.70;;;;;;222429;1253;24186;-53
2023/06/22 19:56:24;;;;;;;12.10;5.40;;;25.70;52.60;;;;;;222332;1260;24187;-51
2023/06/22 20:01:28;;;;;;;9.00;5.00;;;25.50;50.70;;;;;;222488;1259;23963;-52
2023/06/22 20:06:33;;;;;;;8.50;5.20;;;25.30;49.80;;;;;;222084;1266;27630;-52
2023/06/22 20:11:40;;;;;;;7.90;4.50;;;25.20;48.90;;;;;;222177;1257;22644;-55
2023/06/22 20:16:48;;;;;;;5.20;4.20;;;25.60;50.50;;;;;;222694;1267;22841;-55
2023/06/22 20:21:52;;;;;;;5.00;4.10;;;26.20;49.70;;;;;;223093;1265;22613;-53
2023/06/22 20:26:56;;;;;;;5.90;3.70;;;26.80;49.60;;;;;;222636;1262;23872;-54
2023/06/22 20:32:08;;;;;;;4.70;4.00;;;27.20;49.00;;;;;;222677;1268;22515;-55
2023/06/22 20:37:14;;;;;;;25.90;4.60;;;27.40;49.80;;;;;;222321;1250;24311;-54
2023/06/22 20:42:18;;;;;;;6.90;4.70;;;27.40;49.70;;;;;;222031;1266;26490;-54
2023/06/22 20:47:23;;;;;;;5.10;4.10;;;27.30;50.80;;;;;;221853;1260;22497;-54
2023/06/22 20:52:28;;;;;;;10.70;4.60;;;25.80;50.80;;;;;;222211;1260;25379;-54
2023/06/22 20:57:34;;;;;;;4.40;3.90;;;25.00;50.10;;;;;;222684;1261;22503;-55
2023/06/22 21:02:40;;;;;;;9.00;4.00;;;24.70;49.40;;;;;;221847;1266;23448;-53
2023/06/22 21:07:45;;;;;;;7.20;4.40;;;25.80;49.10;;;;;;221811;1253;24121;-53
2023/06/22 21:12:52;;;;;;;3.90;3.40;;;26.60;48.60;;;;;;222535;1253;22539;-54
2023/06/22 21:17:58;;;;;;;4.40;4.00;;;27.00;48.40;;;;;;222423;1259;24187;-54
2023/06/22 21:23:03;;;;;;;8.60;5.10;;;27.10;47.90;;;;;;222196;1267;24339;-55
2023/06/22 21:28:08;;;;;;;6.60;4.70;;;27.10;54.30;;;;;;221995;1265;22720;-56
2023/06/22 21:33:13;;;;;;;10.60;4.60;;;27.10;51.50;;;;;;222205;1266;22515;-54
2023/06/22 21:38:17;;;;;;;8.30;4.90;;;27.30;51.30;;;;;;221984;1262;22523;-54
2023/06/22 21:43:21;;;;;;;7.70;4.40;;;27.40;52.10;;;;;;222078;1268;22531;-55
2023/06/22 21:48:25;;;;;;;9.40;4.70;;;27.40;52.50;;;;;;222133;1265;22533;-55
2023/06/22 21:53:29;;;;;;;8.50;4.90;;;27.50;52.80;;;;;;222338;1268;22657;-54
2023/06/22 21:58:33;;;;;;;7.80;4.50;;;27.50;52.80;;;;;;222029;1253;22532;-54
2023/06/22 22:03:37;;;;;;;8.50;4.60;;;27.50;53.30;;;;;;221957;1261;22509;-56
2023/06/22 22:08:43;;;;;;;5.90;4.80;;;27.40;53.60;;;;;;222248;1264;22520;-54
2023/06/22 22:13:48;;;;;;;5.90;4.40;;;27.50;53.60;;;;;;222423;1254;22577;-55
2023/06/22 22:18:52;;;;;;;6.30;4.00;;;27.60;54.20;;;;;;221846;1268;22529;-55
2023/06/22 22:23:57;;;;;;;6.90;4.50;;;27.60;54.50;;;;;;222404;1260;24231;-56
2023/06/22 22:29:04;;;;;;;4.60;4.20;;;27.70;54.20;;;;;;226197;1263;23071;-54
2023/06/22 22:34:11;;;;;;;6.80;4.40;;;27.80;54.30;;;;;;222714;1264;22515;-53
2023/06/22 22:39:37;;;;;;;4.60;3.90;;;27.90;53.70;;;;;;222051;1261;23168;-54
2023/06/22 22:44:44;;;;;;;6.10;4.10;;;27.80;54.50;;;;;;222215;1263;24623;-56
2023/06/22 22:49:50;;;;;;;5.40;4.10;;;27.70;54.80;;;;;;222344;1261;23010;-53
2023/06/22 22:54:56;;;;;;;6.10;4.50;;;27.70;54.90;;;;;;222192;1266;24221;-54
2023/06/22 23:00:03;;;;;;;4.40;4.00;;;27.70;55.10;;;;;;222611;1255;22516;-52
2023/06/22 23:05:10;;;;;;;6.70;4.10;;;27.70;55.50;;;;;;222707;1255;25303;-52
2023/06/22 23:10:14;;;;;;;4.50;4.10;;;27.50;55.50;;;;;;222476;1261;22548;-55
2023/06/22 23:15:18;;;;;;;4.90;4.40;;;27.50;56.00;;;;;;222413;1264;25696;-54
2023/06/22 23:20:22;;;;;;;5.20;3.80;;;27.60;55.70;;;;;;222475;1245;26677;-53
2023/06/22 23:25:28;;;;;;;5.50;4.30;;;27.60;55.50;;;;;;222248;1253;22525;-55
2023/06/22 23:30:38;;;;;;;4.80;4.40;;;27.70;55.00;;;;;;222044;1254;22521;-52
2023/06/22 23:35:44;;;;;;;4.10;3.60;;;27.70;55.50;;;;;;222162;1252;23522;-53
2023/06/22 23:40:48;;;;;;;4.30;3.70;;;27.70;55.90;;;;;;230220;1260;22164;-52
2023/06/22 23:45:52;;;;;;;4.20;3.90;;;28.00;55.00;;;;;;222056;1266;22530;-49
2023/06/22 23:50:59;;;;;;;4.40;4.00;;;28.00;54.80;;;;;;224557;1261;22517;-53
2023/06/22 23:56:03;;;;;;;6.50;4.00;;;27.90;54.40;;;;;;221945;1261;24257;-50
